createdAt,value
2023-03-23T16:00:17.688Z,1.40
2023-03-23T16:02:48.955Z,1.70
2023-03-23T16:05:16.999Z,1.48
2023-03-23T16:07:44.753Z,1.70
2023-03-23T16:10:18.562Z,1.50
2023-03-23T16:12:46.765Z,1.42
2023-03-23T16:15:15.713Z,1.50
2023-03-23T16:17:44.452Z,1.70
2023-03-23T16:20:16.307Z,1.80
2023-03-23T16:22:44.286Z,1.60
2023-03-23T16:25:12.704Z,1.90
2023-03-23T16:27:41.685Z,1.88
2023-03-23T16:30:16.974Z,2.10
2023-03-23T16:32:46.936Z,1.90
2023-03-23T16:35:17.097Z,2.00
2023-03-23T16:37:49.336Z,2.15
2023-03-23T16:40:18.442Z,2.10
2023-03-23T16:42:46.294Z,2.67
2023-03-23T16:45:15.514Z,2.35
2023-03-23T16:47:44.388Z,2.72
2023-03-23T16:50:14.223Z,3.55
2023-03-23T16:52:47.412Z,3.30
2023-03-23T16:55:17.056Z,4.18
2023-03-23T16:57:45.559Z,3.35
2023-03-23T17:00:16.709Z,4.22
2023-03-23T17:02:45.034Z,4.63
2023-03-23T17:05:13.414Z,3.97
2023-03-23T17:07:41.473Z,4.50
2023-03-23T17:10:13.015Z,3.85
2023-03-23T17:12:41.393Z,4.93
2023-03-23T17:15:11.342Z,3.13
2023-03-23T17:17:39.961Z,5.47
2023-03-23T17:20:09.882Z,5.60
2023-03-23T17:22:38.062Z,5.03
2023-03-23T17:25:07.462Z,4.57
2023-03-23T17:27:37.552Z,4.78
2023-03-23T17:30:06.104Z,2.90
2023-03-23T17:32:33.904Z,2.70
2023-03-23T17:35:01.793Z,2.42
2023-03-23T17:37:29.657Z,3.22
2023-03-23T17:39:57.353Z,2.90
2023-03-23T17:42:25.336Z,2.70
2023-03-23T17:44:54.524Z,3.17
2023-03-23T17:47:22.625Z,2.80
2023-03-23T17:49:51.278Z,2.95
2023-03-23T17:52:19.301Z,2.63
2023-03-23T17:54:47.519Z,2.65
2023-03-23T17:57:15.742Z,3.13
2023-03-23T17:59:43.895Z,3.30
2023-03-23T18:02:14.062Z,3.80
2023-03-23T18:04:42.568Z,3.80
2023-03-23T18:07:10.585Z,3.60
2023-03-23T18:09:38.532Z,3.83
2023-03-23T18:12:06.819Z,3.50
2023-03-23T18:14:35.429Z,3.85
2023-03-23T18:17:03.250Z,4.13
2023-03-23T18:19:36.179Z,5.75
2023-03-23T18:22:04.057Z,5.53
2023-03-23T18:24:31.876Z,4.60
2023-03-23T18:27:00.236Z,4.35
2023-03-23T18:29:28.380Z,3.50
2023-03-23T18:31:56.316Z,4.47
2023-03-23T18:34:24.359Z,5.30
2023-03-23T18:36:53.546Z,4.70
2023-03-23T18:39:22.144Z,4.40
2023-03-23T18:41:49.997Z,4.38
2023-03-23T18:44:17.886Z,4.75
2023-03-23T18:46:45.688Z,6.57
2023-03-23T18:49:13.404Z,8.00
2023-03-23T18:51:41.415Z,6.72
2023-03-23T18:54:10.921Z,8.18
2023-03-23T18:56:38.796Z,8.65
2023-03-23T18:59:07.043Z,7.45
2023-03-23T19:01:34.872Z,8.05
2023-03-23T19:04:06.565Z,8.10
2023-03-23T19:06:36.419Z,7.53
2023-03-23T19:09:04.914Z,7.80
2023-03-23T19:11:34.069Z,7.60
2023-03-23T19:14:03.755Z,8.80
2023-03-23T19:16:33.957Z,6.82
2023-03-23T19:19:03.090Z,7.60
2023-03-23T19:21:32.203Z,8.52
2023-03-23T19:24:01.237Z,8.70
2023-03-23T19:26:32.646Z,11.18
2023-03-23T19:29:25.509Z,9.93
2023-03-23T19:31:52.446Z,10.15
2023-03-23T19:34:21.786Z,8.27
2023-03-23T19:36:55.078Z,7.47
2023-03-23T19:39:25.251Z,6.78
2023-03-23T19:41:53.049Z,6.40
2023-03-23T19:44:22.202Z,5.25
2023-03-23T19:46:50.058Z,6.95
2023-03-23T19:49:17.988Z,5.97
2023-03-23T19:51:46.020Z,6.00
2023-03-23T19:54:14.533Z,5.20
2023-03-23T19:56:43.312Z,5.18
2023-03-23T19:59:14.964Z,4.68
2023-03-23T20:01:44.608Z,7.28
2023-03-23T20:04:12.976Z,5.85
2023-03-23T20:06:41.331Z,5.15
2023-03-23T20:09:09.350Z,6.35
2023-03-23T20:11:37.537Z,6.57
2023-03-23T20:14:05.630Z,9.07
2023-03-23T20:16:33.503Z,6.85
2023-03-23T20:19:04.370Z,6.60
2023-03-23T20:21:33.736Z,9.52
2023-03-23T20:24:01.540Z,8.45
2023-03-23T20:26:32.270Z,9.02
2023-03-23T20:29:00.616Z,6.55
2023-03-23T20:31:30.578Z,5.65
2023-03-23T20:34:01.895Z,5.20
2023-03-23T20:36:34.923Z,5.25
2023-03-23T20:39:05.342Z,4.88
2023-03-23T20:41:36.059Z,6.30
2023-03-23T20:44:04.683Z,6.28
2023-03-23T20:46:32.850Z,7.55
2023-03-23T20:49:01.022Z,6.47
2023-03-23T20:51:29.259Z,6.35
2023-03-23T20:53:58.319Z,8.50
2023-03-23T20:56:26.749Z,6.25
2023-03-23T20:58:54.613Z,5.70
2023-03-23T21:01:22.636Z,6.22
2023-03-23T21:03:52.130Z,6.13
2023-03-23T21:06:20.303Z,5.85
2023-03-23T21:08:48.338Z,6.18
2023-03-23T21:11:19.601Z,5.50
2023-03-23T21:13:47.657Z,5.28
2023-03-23T21:16:16.274Z,5.35
2023-03-23T21:18:44.058Z,4.57
2023-03-23T21:21:14.998Z,4.90
2023-03-23T21:23:46.554Z,5.00
2023-03-23T21:26:17.798Z,5.13
2023-03-23T21:28:46.641Z,5.20
2023-03-23T21:31:17.359Z,5.40
2023-03-23T21:33:45.532Z,5.10
2023-03-23T21:36:13.677Z,5.43
2023-03-23T21:38:41.801Z,5.15
2023-03-23T21:41:13.534Z,5.22
2023-03-23T21:43:45.846Z,5.45
2023-03-23T21:46:18.234Z,5.13
2023-03-23T21:48:51.405Z,5.45
2023-03-23T21:51:22.327Z,5.20
2023-03-23T21:53:51.227Z,5.38
2023-03-23T21:56:18.957Z,5.35
2023-03-23T21:58:48.419Z,5.28
2023-03-23T22:01:17.458Z,5.47
2023-03-23T22:03:46.281Z,5.45
2023-03-23T22:06:17.175Z,5.72
2023-03-23T22:08:46.809Z,5.75
2023-03-23T22:11:17.585Z,5.38
2023-03-23T22:13:45.980Z,6.10
2023-03-23T22:16:17.925Z,5.13
2023-03-23T22:18:48.019Z,5.15
2023-03-23T22:21:18.032Z,4.75
2023-03-23T22:23:46.888Z,4.97
2023-03-23T22:26:16.437Z,5.35
2023-03-23T22:28:45.775Z,4.95
2023-03-23T22:31:18.604Z,4.60
2023-03-23T22:33:47.490Z,5.40
2023-03-23T22:36:16.527Z,5.40
2023-03-23T22:38:47.180Z,5.28
2023-03-23T22:41:18.114Z,4.68
2023-03-23T22:43:46.011Z,4.57
2023-03-23T22:46:14.166Z,4.75
2023-03-23T22:48:43.465Z,4.60
2023-03-23T22:51:12.384Z,4.40
2023-03-23T22:53:40.645Z,3.70
2023-03-23T22:56:09.686Z,3.53
2023-03-23T22:58:37.925Z,3.67
2023-03-23T23:01:09.009Z,3.20
2023-03-23T23:03:38.035Z,3.15
2023-03-23T23:06:08.507Z,3.30
2023-03-23T23:08:36.353Z,3.35
2023-03-23T23:11:05.701Z,3.17
2023-03-23T23:13:34.235Z,3.10
2023-03-23T23:16:03.402Z,3.20
2023-03-23T23:18:33.238Z,4.60
2023-03-23T23:21:02.899Z,5.03
2023-03-23T23:23:32.228Z,4.63
2023-03-23T23:26:00.034Z,4.80
2023-03-23T23:28:28.467Z,4.50
2023-03-23T23:30:56.935Z,3.97
2023-03-23T23:33:24.994Z,3.60
2023-03-23T23:35:54.385Z,4.20
2023-03-23T23:38:22.271Z,4.65
2023-03-23T23:40:51.557Z,5.50
2023-03-23T23:43:19.440Z,6.30
2023-03-23T23:45:47.276Z,5.93
2023-03-23T23:48:15.668Z,5.68
2023-03-23T23:50:43.583Z,5.38
2023-03-23T23:53:12.985Z,5.53
2023-03-23T23:55:41.214Z,5.57
2023-03-23T23:58:10.441Z,6.03
